Last 24 Hours

Pinyon

10 Minute Data | America/Los_Angeles
as of 9/5/26 5:36 PM PDT
Date & Time Temp (°F) Dew Pt (°F) RH (%) Wind Spd (mph) Wind Dir (°) Wind Gust (mph) Wind Gst Dir (°) Daily Max Temp (°F) Daily Min Temp (°F)
9/5/26 - 1730 78.7 51.6 39 14.0 NNW | 341 22.4 NNW | 334 83.5 63.2
9/5/26 - 1720 78.6 51.1 38 14.1 NNW | 348 21.5 N | 353 83.5 63.2
9/5/26 - 1710 79.2 51.2 38 14.3 N | 351 22.4 N | 351 83.5 63.2
9/5/26 - 1700 78.8 51.1 38 12.7 N | 360 21.6 N | 351 83.5 63.2
9/5/26 - 1650 79.7 51.4 37 14.3 N | 353 20.8 N | 2 83.5 63.2
9/5/26 - 1640 79.8 51.6 38 12.6 N | 358 20.6 NNE | 15 83.5 63.2
9/5/26 - 1630 79.3 51.6 38 12.3 NNW | 342 19.4 NNW | 337 83.5 63.2
9/5/26 - 1620 79.7 51.5 37 13.0 N | 355 24.0 NNW | 344 83.5 63.2
9/5/26 - 1610 79.8 51.6 37 13.6 N | 357 22.2 N | 0 83.5 63.2
9/5/26 - 1600 79.7 52.0 38 12.2 NNE | 14 21.1 NNE | 25 83.5 63.2
9/5/26 - 1550 80.0 51.1 37 12.7 NNE | 13 22.1 N | 354 83.5 63.2
9/5/26 - 1540 79.5 51.3 37 13.3 N | 11 22.4 N | 352 83.5 63.2
9/5/26 - 1530 79.2 51.8 38 13.3 NNE | 17 21.6 NNE | 15 83.5 63.2
9/5/26 - 1520 80.1 52.1 38 14.7 N | 5 24.0 SE | 146 83.5 63.2
9/5/26 - 1510 80.2 51.0 36 15.1 N | 357 23.8 NNE | 13 83.5 63.2
9/5/26 - 1500 80.2 50.3 35 15.0 N | 7 25.1 N | 354 83.5 63.2
9/5/26 - 1450 80.3 49.0 34 14.7 NNW | 348 25.4 NNW | 344 83.5 63.2
9/5/26 - 1440 80.4 49.2 34 12.5 NNW | 346 25.1 NNW | 335 83.5 63.2
9/5/26 - 1430 80.7 48.9 33 13.6 NNW | 348 24.9 NNW | 330 83.5 63.2
9/5/26 - 1420 81.3 48.5 32 13.8 NNW | 332 23.4 NNW | 330 83.5 63.2
9/5/26 - 1410 81.6 48.1 31 13.9 N | 349 28.7 NNW | 344 83.5 63.2
9/5/26 - 1400 82.2 47.3 30 13.0 NNW | 327 23.6 NW | 310 83.5 63.2
9/5/26 - 1350 81.2 46.7 30 13.3 N | 353 21.8 N | 350 83.5 63.2
9/5/26 - 1340 81.4 45.1 28 12.9 N | 349 23.2 NNW | 334 83.5 63.2
9/5/26 - 1330 81.3 43.9 27 14.0 N | 8 25.4 N | 9 83.5 63.2
9/5/26 - 1320 82.2 46.3 28 13.4 NNW | 334 25.7 NW | 323 83.5 63.2
9/5/26 - 1310 82.8 45.6 27 11.1 NNW | 327 22.9 NNW | 342 83.5 63.2
9/5/26 - 1300 81.8 44.1 27 13.3 NNW | 347 23.4 N | 351 83.0 63.2
9/5/26 - 1250 81.0 43.4 26 13.2 NNW | 341 22.7 NNW | 328 81.8 63.2
9/5/26 - 1240 80.7 43.6 27 13.0 NNW | 347 21.6 NNW | 334 81.8 63.2
9/5/26 - 1230 80.9 44.6 28 14.3 NNW | 330 23.2 NNW | 344 81.6 63.2
9/5/26 - 1220 80.4 43.4 27 12.8 NNW | 338 23.2 N | 351 81.1 63.2
9/5/26 - 1210 80.1 42.8 27 12.9 N | 351 19.4 N | 352 80.8 63.2
9/5/26 - 1200 79.8 41.8 26 15.1 NNW | 342 24.7 NNW | 343 80.8 63.2
9/5/26 - 1150 80.0 41.1 25 15.8 N | 351 23.7 NW | 324 80.8 63.2
9/5/26 - 1140 79.6 40.8 25 16.2 NNW | 338 25.1 N | 0 80.2 63.2
9/5/26 - 1130 78.2 39.3 25 14.3 NNW | 335 25.2 NNW | 344 79.2 63.2
9/5/26 - 1120 77.9 39.8 26 15.3 NNW | 341 23.7 N | 351 78.3 63.2
9/5/26 - 1110 77.0 40.4 27 16.7 NNW | 332 24.8 NNW | 327 77.6 63.2
9/5/26 - 1100 77.0 40.8 27 16.0 NNW | 331 25.1 NNW | 332 77.6 63.2
9/5/26 - 1050 76.2 39.9 27 16.0 NNW | 348 26.2 NNW | 345 76.5 63.2
9/5/26 - 1040 75.7 39.8 27 18.3 N | 350 27.0 NNW | 346 75.8 63.2
9/5/26 - 1030 75.3 37.3 25 16.8 N | 350 25.3 NNW | 347 75.8 63.2
9/5/26 - 1020 74.8 37.4 26 17.2 NNW | 346 23.8 N | 7 75.0 63.2
9/5/26 - 1010 74.4 38.3 27 17.0 N | 349 23.7 N | 354 74.7 63.2
9/5/26 - 1000 74.1 37.3 26 16.5 N | 350 24.0 N | 354 74.3 63.2
9/5/26 - 0950 74.2 35.7 25 15.8 NNW | 345 25.0 N | 353 74.3 63.2
9/5/26 - 0940 73.8 33.5 23 16.1 NNW | 342 22.1 NNW | 334 74.0 63.2
9/5/26 - 0930 73.9 30.1 20 14.9 NNW | 340 22.3 N | 354 74.0 63.2
9/5/26 - 0920 73.8 24.0 15 12.2 NNW | 342 18.3 NNW | 336 73.9 63.2
9/5/26 - 0910 73.3 22.2 15 12.2 NNW | 340 20.0 NNW | 348 73.4 63.2
9/5/26 - 0900 72.7 19.0 13 12.7 N | 349 18.0 NNW | 335 73.0 63.2
9/5/26 - 0850 72.4 18.4 13 13.0 N | 352 18.8 N | 9 72.7 63.2
9/5/26 - 0840 71.5 20.6 14 11.4 N | 354 15.3 N | 350 72.0 63.2
9/5/26 - 0830 70.2 22.2 16 10.9 N | 360 15.4 N | 0 71.2 63.2
9/5/26 - 0820 69.7 22.8 17 9.5 N | 1 14.9 N | 7 69.9 63.2
9/5/26 - 0810 68.9 22.6 17 7.1 N | 356 10.2 N | 0 69.3 63.2
9/5/26 - 0800 68.6 22.4 17 6.0 N | 353 9.6 NNE | 19 68.6 63.2
9/5/26 - 0750 68.1 22.8 18 5.0 N | 356 9.7 N | 1 68.6 63.2
9/5/26 - 0740 66.9 23.0 19 5.4 N | 360 8.0 NNW | 336 67.5 63.2
9/5/26 - 0730 65.7 23.1 20 5.9 N | 354 9.6 N | 0 66.4 63.2
9/5/26 - 0720 65.1 23.1 20 5.4 N | 353 8.4 N | 5 66.4 63.2
9/5/26 - 0710 64.5 22.5 20 4.4 NNW | 338 8.4 N | 354 66.4 63.2
9/5/26 - 0700 64.1 22.0 20 6.8 NNW | 346 12.1 N | 352 66.4 63.2
9/5/26 - 0650 63.7 21.6 20 9.7 N | 0 13.9 N | 8 66.4 63.2
9/5/26 - 0640 63.4 21.3 20 10.4 N | 6 14.0 N | 4 66.4 63.2
9/5/26 - 0630 63.3 21.6 20 10.3 N | 9 14.2 N | 11 66.4 63.2
9/5/26 - 0620 63.2 22.1 20 10.2 N | 10 16.5 N | 4 66.4 63.2
9/5/26 - 0610 63.3 22.9 21 9.0 N | 6 12.6 N | 11 66.4 63.2
9/5/26 - 0600 63.4 23.6 22 9.0 N | 8 13.5 N | 10 66.4 63.2
9/5/26 - 0550 63.5 23.9 22 9.1 N | 3 15.0 NNE | 12 66.4 63.4
9/5/26 - 0540 63.6 24.0 22 9.9 N | 3 14.6 N | 7 66.4 63.5
9/5/26 - 0530 63.8 23.9 22 10.3 N | 10 14.5 N | 7 66.4 63.5
9/5/26 - 0520 63.8 23.9 22 10.5 NNE | 14 15.3 NNE | 17 66.4 63.5
9/5/26 - 0510 63.9 24.0 22 11.7 NNE | 12 16.8 N | 6 66.4 63.5
9/5/26 - 0500 63.8 25.0 23 11.8 NNE | 15 16.7 N | 6 66.4 63.5
9/5/26 - 0450 63.9 25.0 23 11.1 NNE | 14 15.8 NNE | 18 66.4 63.8
9/5/26 - 0440 64.2 24.4 22 10.8 N | 9 17.2 NNE | 13 66.4 64.0
9/5/26 - 0430 64.3 25.2 22 10.9 N | 9 16.1 N | 3 66.4 64.0
9/5/26 - 0420 64.2 26.4 24 10.8 N | 5 16.7 N | 353 66.4 64.0
9/5/26 - 0410 64.5 27.2 24 11.1 N | 2 17.0 N | 6 66.4 64.4
9/5/26 - 0400 64.7 28.0 25 11.7 N | 1 18.0 N | 3 66.4 64.5
9/5/26 - 0350 64.8 28.8 26 11.7 N | 4 17.8 N | 0 66.4 64.5
9/5/26 - 0340 64.9 28.8 26 12.5 N | 359 17.7 NNE | 12 66.4 64.5
9/5/26 - 0330 64.8 28.9 26 13.1 N | 0 19.3 N | 10 66.4 64.5
9/5/26 - 0320 64.7 29.1 26 14.0 N | 359 18.6 N | 349 66.4 64.5
9/5/26 - 0310 64.6 29.6 27 11.5 N | 358 17.0 N | 4 66.4 64.5
9/5/26 - 0300 65.2 29.4 26 10.8 N | 356 16.7 N | 354 66.4 64.7
9/5/26 - 0250 65.4 29.6 26 11.6 N | 356 18.0 N | 352 66.4 65.1
9/5/26 - 0240 65.4 29.5 26 11.4 N | 351 17.4 N | 0 66.4 65.1
9/5/26 - 0230 65.2 29.2 26 9.5 NNW | 344 16.5 NNW | 347 66.4 65.1
9/5/26 - 0220 65.3 29.6 26 10.2 N | 355 15.7 N | 0 66.4 65.1
9/5/26 - 0210 65.5 29.7 26 11.9 N | 352 18.2 N | 2 66.4 65.3
9/5/26 - 0200 65.7 29.3 25 13.6 N | 351 23.4 N | 6 66.4 65.3
9/5/26 - 0150 66.2 28.2 24 16.5 N | 0 22.9 N | 9 66.4 65.3
9/5/26 - 0140 65.9 28.5 24 15.0 N | 356 21.5 N | 352 66.1 65.3
9/5/26 - 0130 65.6 29.9 26 15.8 N | 356 20.7 NNW | 343 65.8 65.3
9/5/26 - 0120 65.4 30.8 27 17.0 N | 360 22.4 N | 4 65.6 65.3
9/5/26 - 0110 65.6 31.1 27 16.9 N | 3 23.6 N | 3 65.6 65.5
9/5/26 - 0100 65.5 32.0 29 16.9 N | 3 24.6 NNE | 20 82.9 62.2
9/5/26 - 0050 65.9 32.4 29 15.9 N | 2 22.7 N | 0 82.9 62.2
9/5/26 - 0040 66.3 33.6 30 13.3 N | 356 19.5 N | 352 82.9 62.2
9/5/26 - 0030 67.0 34.0 29 12.2 N | 0 17.8 NNE | 12 82.9 62.2
9/5/26 - 0020 66.8 34.0 30 12.5 N | 3 19.9 N | 0 82.9 62.2
9/5/26 - 0010 66.3 35.8 32 13.2 N | 5 20.5 NNE | 16 82.9 62.2
9/5/26 - 0000 66.3 36.3 33 14.6 N | 2 23.4 N | 4 82.9 62.2
9/4/26 - 2350 66.5 35.7 32 14.6 N | 6 23.4 N | 11 82.9 62.2
9/4/26 - 2340 66.0 36.0 33 15.0 N | 9 20.4 NNE | 14 82.9 62.2
9/4/26 - 2330 66.2 35.8 32 15.9 N | 4 23.6 N | 5 82.9 62.2
9/4/26 - 2320 65.8 36.4 34 15.7 N | 1 21.8 N | 354 82.9 62.2
9/4/26 - 2310 66.1 36.0 33 13.9 N | 356 21.0 N | 0 82.9 62.2
9/4/26 - 2300 66.6 34.9 31 14.0 N | 355 19.4 N | 3 82.9 62.2
9/4/26 - 2250 66.3 36.0 32 14.6 N | 357 21.1 N | 9 82.9 62.2
9/4/26 - 2240 66.5 36.4 33 14.4 N | 1 23.2 N | 10 82.9 62.2
9/4/26 - 2230 66.3 36.9 34 14.5 N | 3 20.7 N | 5 82.9 62.2
9/4/26 - 2220 66.4 37.4 34 14.1 N | 5 21.1 N | 8 82.9 62.2
9/4/26 - 2210 67.0 37.1 33 14.2 N | 6 20.5 N | 0 82.9 62.2
9/4/26 - 2200 66.6 37.8 35 13.7 N | 6 20.2 N | 11 82.9 62.2
9/4/26 - 2150 66.4 38.3 35 12.8 N | 8 18.6 NNE | 18 82.9 62.2
9/4/26 - 2140 66.6 38.4 35 12.3 N | 9 18.7 NNE | 16 82.9 62.2
9/4/26 - 2130 67.4 38.3 34 10.9 N | 7 20.0 N | 6 82.9 62.2
9/4/26 - 2120 67.7 38.4 34 12.2 N | 351 18.0 NNW | 347 82.9 62.2
9/4/26 - 2110 68.0 39.0 35 12.8 N | 349 17.5 NNW | 347 82.9 62.2
9/4/26 - 2100 68.2 39.7 35 14.8 N | 357 20.2 N | 0 82.9 62.2
9/4/26 - 2050 67.9 40.0 36 13.1 N | 1 17.8 N | 0 82.9 62.2
9/4/26 - 2040 68.0 40.3 36 12.8 N | 358 19.0 NNW | 348 82.9 62.2
9/4/26 - 2030 68.2 40.6 37 13.0 N | 5 19.4 N | 0 82.9 62.2
9/4/26 - 2020 68.8 41.1 36 14.5 N | 2 21.1 N | 6 82.9 62.2
9/4/26 - 2010 69.1 41.2 36 15.7 N | 354 21.0 NNW | 338 82.9 62.2
9/4/26 - 2000 69.2 41.4 36 15.2 N | 353 23.4 N | 352 82.9 62.2
9/4/26 - 1950 69.4 41.6 36 14.3 NNW | 344 20.0 NNW | 329 82.9 62.2
9/4/26 - 1940 69.7 41.5 36 15.3 NNW | 340 25.3 NNW | 335 82.9 62.2
9/4/26 - 1930 70.1 41.6 36 15.4 NNW | 338 25.1 N | 349 82.9 62.2
9/4/26 - 1920 70.6 42.4 36 13.7 NNW | 331 22.7 NW | 326 82.9 62.2
9/4/26 - 1910 71.1 43.2 36 14.8 NNW | 333 22.4 NNW | 340 82.9 62.2
9/4/26 - 1900 71.8 43.6 36 15.6 NNW | 337 24.4 N | 351 82.9 62.2
9/4/26 - 1850 73.0 44.0 35 17.6 NNW | 339 25.6 NNW | 338 82.9 62.2
9/4/26 - 1840 73.8 43.8 34 17.0 NNW | 340 23.5 NNW | 330 82.9 62.2
9/4/26 - 1830 74.7 43.9 33 16.0 NNW | 342 23.8 N | 350 82.9 62.2
9/4/26 - 1820 75.3 44.4 33 16.6 NNW | 347 24.5 NNW | 344 82.9 62.2
9/4/26 - 1810 76.0 44.1 32 17.1 N | 356 24.2 N | 5 82.9 62.2
9/4/26 - 1800 76.8 44.0 31 14.8 NNW | 346 21.6 NNW | 348 82.9 62.2
9/4/26 - 1750 77.6 43.2 29 13.9 NNW | 343 22.2 N | 0 82.9 62.2
9/4/26 - 1740 78.0 43.1 29 14.6 NNW | 340 22.8 N | 351 82.9 62.2
9/4/26 - 1730 78.0 42.9 29 13.6 NNW | 344 22.4 NNW | 331 82.9 62.2
Max 82.8 52.1 39 18.3 - 28.7 - 83.5 65.5
Avg 71.4 36.4 28 13.1 - 20.3 - - -
Min 63.2 18.4 13 4.4 - 8.0 - 65.6 62.2